sensor_id;sensor_type;location;lat;lon;timestamp;P1;durP1;ratioP1;P2;durP2;ratioP2
52067;SDS011;60237;52.338;21.228;2023-07-16T00:01:01;514.83;;;475.33;;
52067;SDS011;60237;52.338;21.228;2023-07-16T00:03:28;494.83;;;460.20;;
52067;SDS011;60237;52.338;21.228;2023-07-16T00:05:55;519.17;;;479.52;;
52067;SDS011;60237;52.338;21.228;2023-07-16T00:08:22;502.70;;;465.02;;
52067;SDS011;60237;52.338;21.228;2023-07-16T00:10:50;487.00;;;452.50;;
52067;SDS011;60237;52.338;21.228;2023-07-16T00:13:16;518.42;;;479.42;;
52067;SDS011;60237;52.338;21.228;2023-07-16T00:15:43;484.17;;;450.45;;
52067;SDS011;60237;52.338;21.228;2023-07-16T00:18:10;495.83;;;460.73;;
52067;SDS011;60237;52.338;21.228;2023-07-16T00:20:38;496.58;;;461.00;;
52067;SDS011;60237;52.338;21.228;2023-07-16T00:23:05;503.42;;;463.33;;
52067;SDS011;60237;52.338;21.228;2023-07-16T00:25:32;478.25;;;444.15;;
52067;SDS011;60237;52.338;21.228;2023-07-16T00:27:59;514.58;;;474.15;;
52067;SDS011;60237;52.338;21.228;2023-07-16T00:30:26;520.80;;;478.73;;
52067;SDS011;60237;52.338;21.228;2023-07-16T00:32:53;509.70;;;468.77;;
52067;SDS011;60237;52.338;21.228;2023-07-16T00:35:20;513.30;;;474.98;;
52067;SDS011;60237;52.338;21.228;2023-07-16T00:37:47;483.02;;;448.67;;
52067;SDS011;60237;52.338;21.228;2023-07-16T00:40:14;501.00;;;465.80;;
52067;SDS011;60237;52.338;21.228;2023-07-16T00:42:49;484.42;;;451.25;;
52067;SDS011;60237;52.338;21.228;2023-07-16T00:45:16;498.98;;;463.58;;
52067;SDS011;60237;52.338;21.228;2023-07-16T00:47:43;500.77;;;463.45;;
52067;SDS011;60237;52.338;21.228;2023-07-16T00:50:11;503.27;;;462.63;;
52067;SDS011;60237;52.338;21.228;2023-07-16T00:52:38;486.85;;;452.20;;
52067;SDS011;60237;52.338;21.228;2023-07-16T00:55:06;496.38;;;460.80;;
52067;SDS011;60237;52.338;21.228;2023-07-16T00:57:33;487.15;;;451.33;;
52067;SDS011;60237;52.338;21.228;2023-07-16T01:00:01;490.25;;;454.73;;
52067;SDS011;60237;52.338;21.228;2023-07-16T01:02:28;482.85;;;447.90;;
52067;SDS011;60237;52.338;21.228;2023-07-16T01:04:55;490.17;;;451.92;;
52067;SDS011;60237;52.338;21.228;2023-07-16T01:07:23;481.67;;;447.88;;
52067;SDS011;60237;52.338;21.228;2023-07-16T01:09:53;475.98;;;442.60;;
52067;SDS011;60237;52.338;21.228;2023-07-16T01:12:22;467.30;;;433.48;;
52067;SDS011;60237;52.338;21.228;2023-07-16T01:14:50;465.23;;;433.30;;
52067;SDS011;60237;52.338;21.228;2023-07-16T01:17:19;466.58;;;433.52;;
52067;SDS011;60237;52.338;21.228;2023-07-16T01:19:46;470.52;;;437.75;;
52067;SDS011;60237;52.338;21.228;2023-07-16T01:25:01;489.30;;;451.38;;
52067;SDS011;60237;52.338;21.228;2023-07-16T01:30:18;478.77;;;443.67;;
52067;SDS011;60237;52.338;21.228;2023-07-16T01:32:46;455.95;;;424.83;;
52067;SDS011;60237;52.338;21.228;2023-07-16T01:35:13;453.88;;;420.55;;
52067;SDS011;60237;52.338;21.228;2023-07-16T01:37:41;449.42;;;419.00;;
52067;SDS011;60237;52.338;21.228;2023-07-16T01:40:09;449.58;;;416.92;;
52067;SDS011;60237;52.338;21.228;2023-07-16T01:42:36;453.38;;;420.48;;
52067;SDS011;60237;52.338;21.228;2023-07-16T01:45:03;447.25;;;415.05;;
52067;SDS011;60237;52.338;21.228;2023-07-16T01:49:58;476.45;;;438.17;;
52067;SDS011;60237;52.338;21.228;2023-07-16T01:52:26;458.55;;;427.27;;
52067;SDS011;60237;52.338;21.228;2023-07-16T01:54:55;447.17;;;414.42;;
52067;SDS011;60237;52.338;21.228;2023-07-16T01:57:22;445.98;;;413.20;;
52067;SDS011;60237;52.338;21.228;2023-07-16T01:59:49;430.75;;;399.10;;
52067;SDS011;60237;52.338;21.228;2023-07-16T02:02:16;485.67;;;450.60;;
52067;SDS011;60237;52.338;21.228;2023-07-16T02:04:44;477.70;;;439.70;;
52067;SDS011;60237;52.338;21.228;2023-07-16T02:07:11;480.38;;;443.33;;
52067;SDS011;60237;52.338;21.228;2023-07-16T02:09:37;482.60;;;448.05;;
52067;SDS011;60237;52.338;21.228;2023-07-16T02:12:04;481.15;;;447.00;;
52067;SDS011;60237;52.338;21.228;2023-07-16T02:14:31;483.88;;;449.25;;
52067;SDS011;60237;52.338;21.228;2023-07-16T02:16:58;495.48;;;456.88;;
52067;SDS011;60237;52.338;21.228;2023-07-16T02:19:24;482.60;;;449.60;;
52067;SDS011;60237;52.338;21.228;2023-07-16T02:21:54;489.10;;;455.42;;
52067;SDS011;60237;52.338;21.228;2023-07-16T02:24:21;487.80;;;453.35;;
52067;SDS011;60237;52.338;21.228;2023-07-16T02:26:50;494.88;;;461.02;;
52067;SDS011;60237;52.338;21.228;2023-07-16T02:29:17;483.10;;;449.27;;
52067;SDS011;60237;52.338;21.228;2023-07-16T02:31:43;493.13;;;458.77;;
52067;SDS011;60237;52.338;21.228;2023-07-16T02:34:13;488.95;;;456.13;;
52067;SDS011;60237;52.338;21.228;2023-07-16T02:36:39;489.73;;;456.45;;
52067;SDS011;60237;52.338;21.228;2023-07-16T02:39:06;511.52;;;466.80;;
52067;SDS011;60237;52.338;21.228;2023-07-16T02:41:32;509.73;;;466.67;;
52067;SDS011;60237;52.338;21.228;2023-07-16T02:44:00;509.17;;;468.55;;
52067;SDS011;60237;52.338;21.228;2023-07-16T02:46:27;511.95;;;475.77;;
52067;SDS011;60237;52.338;21.228;2023-07-16T02:48:54;490.58;;;456.23;;
52067;SDS011;60237;52.338;21.228;2023-07-16T02:51:21;506.23;;;471.00;;
52067;SDS011;60237;52.338;21.228;2023-07-16T02:53:47;492.98;;;457.33;;
52067;SDS011;60237;52.338;21.228;2023-07-16T02:56:14;486.05;;;451.65;;
52067;SDS011;60237;52.338;21.228;2023-07-16T02:58:41;488.40;;;455.88;;
52067;SDS011;60237;52.338;21.228;2023-07-16T03:01:08;476.30;;;443.50;;
52067;SDS011;60237;52.338;21.228;2023-07-16T03:03:34;484.92;;;451.73;;
52067;SDS011;60237;52.338;21.228;2023-07-16T03:06:02;489.60;;;455.10;;
52067;SDS011;60237;52.338;21.228;2023-07-16T03:08:28;484.73;;;450.40;;
52067;SDS011;60237;52.338;21.228;2023-07-16T03:10:56;504.95;;;465.80;;
52067;SDS011;60237;52.338;21.228;2023-07-16T03:13:23;480.23;;;448.45;;
52067;SDS011;60237;52.338;21.228;2023-07-16T03:15:50;483.88;;;448.67;;
52067;SDS011;60237;52.338;21.228;2023-07-16T03:18:18;495.15;;;460.00;;
52067;SDS011;60237;52.338;21.228;2023-07-16T03:20:44;500.00;;;465.27;;
52067;SDS011;60237;52.338;21.228;2023-07-16T03:23:11;527.15;;;487.88;;
52067;SDS011;60237;52.338;21.228;2023-07-16T03:25:39;526.75;;;487.00;;
52067;SDS011;60237;52.338;21.228;2023-07-16T03:28:05;516.80;;;480.88;;
52067;SDS011;60237;52.338;21.228;2023-07-16T03:30:32;518.13;;;482.55;;
52067;SDS011;60237;52.338;21.228;2023-07-16T03:33:00;527.53;;;490.17;;
52067;SDS011;60237;52.338;21.228;2023-07-16T03:35:26;542.58;;;502.30;;
52067;SDS011;60237;52.338;21.228;2023-07-16T03:37:53;528.70;;;491.10;;
52067;SDS011;60237;52.338;21.228;2023-07-16T03:40:25;547.85;;;508.58;;
52067;SDS011;60237;52.338;21.228;2023-07-16T03:42:52;531.63;;;494.25;;
52067;SDS011;60237;52.338;21.228;2023-07-16T03:45:19;537.20;;;498.95;;
52067;SDS011;60237;52.338;21.228;2023-07-16T03:47:46;538.58;;;498.33;;
52067;SDS011;60237;52.338;21.228;2023-07-16T03:50:13;534.60;;;494.75;;
52067;SDS011;60237;52.338;21.228;2023-07-16T03:52:39;522.85;;;485.13;;
52067;SDS011;60237;52.338;21.228;2023-07-16T03:55:06;531.28;;;493.48;;
52067;SDS011;60237;52.338;21.228;2023-07-16T03:57:33;539.13;;;500.98;;
52067;SDS011;60237;52.338;21.228;2023-07-16T04:00:00;538.03;;;499.40;;
52067;SDS011;60237;52.338;21.228;2023-07-16T04:02:28;534.88;;;496.00;;
52067;SDS011;60237;52.338;21.228;2023-07-16T04:04:55;554.15;;;512.17;;
52067;SDS011;60237;52.338;21.228;2023-07-16T04:07:21;542.58;;;503.65;;
52067;SDS011;60237;52.338;21.228;2023-07-16T04:09:48;558.72;;;517.60;;
52067;SDS011;60237;52.338;21.228;2023-07-16T04:12:15;561.13;;;519.95;;
52067;SDS011;60237;52.338;21.228;2023-07-16T04:14:42;557.45;;;516.63;;
52067;SDS011;60237;52.338;21.228;2023-07-16T04:17:08;551.40;;;490.65;;
52067;SDS011;60237;52.338;21.228;2023-07-16T04:19:35;487.80;;;452.15;;
52067;SDS011;60237;52.338;21.228;2023-07-16T04:22:02;500.40;;;464.48;;
52067;SDS011;60237;52.338;21.228;2023-07-16T04:24:29;510.45;;;471.83;;
52067;SDS011;60237;52.338;21.228;2023-07-16T04:26:55;591.80;;;545.38;;
52067;SDS011;60237;52.338;21.228;2023-07-16T04:29:22;625.55;;;576.10;;
52067;SDS011;60237;52.338;21.228;2023-07-16T04:31:49;610.08;;;561.92;;
52067;SDS011;60237;52.338;21.228;2023-07-16T04:34:15;607.30;;;558.53;;
52067;SDS011;60237;52.338;21.228;2023-07-16T04:36:42;606.30;;;558.03;;
52067;SDS011;60237;52.338;21.228;2023-07-16T04:39:09;601.35;;;552.53;;
52067;SDS011;60237;52.338;21.228;2023-07-16T04:41:36;593.42;;;546.10;;
52067;SDS011;60237;52.338;21.228;2023-07-16T04:44:02;616.47;;;564.45;;
52067;SDS011;60237;52.338;21.228;2023-07-16T04:46:29;611.20;;;560.92;;
52067;SDS011;60237;52.338;21.228;2023-07-16T04:48:57;618.67;;;567.90;;
52067;SDS011;60237;52.338;21.228;2023-07-16T04:51:23;624.15;;;573.00;;
52067;SDS011;60237;52.338;21.228;2023-07-16T04:53:50;621.67;;;570.90;;
52067;SDS011;60237;52.338;21.228;2023-07-16T04:56:17;626.70;;;574.70;;
52067;SDS011;60237;52.338;21.228;2023-07-16T04:58:44;621.83;;;570.90;;
52067;SDS011;60237;52.338;21.228;2023-07-16T05:01:11;642.83;;;590.17;;
52067;SDS011;60237;52.338;21.228;2023-07-16T05:03:38;641.38;;;588.40;;
52067;SDS011;60237;52.338;21.228;2023-07-16T05:06:04;652.50;;;597.58;;
52067;SDS011;60237;52.338;21.228;2023-07-16T05:08:31;656.85;;;602.25;;
52067;SDS011;60237;52.338;21.228;2023-07-16T05:10:58;666.13;;;608.03;;
52067;SDS011;60237;52.338;21.228;2023-07-16T05:13:25;653.40;;;600.08;;
52067;SDS011;60237;52.338;21.228;2023-07-16T05:15:52;660.83;;;606.58;;
52067;SDS011;60237;52.338;21.228;2023-07-16T05:18:21;679.28;;;622.80;;
52067;SDS011;60237;52.338;21.228;2023-07-16T05:20:49;684.17;;;626.70;;
52067;SDS011;60237;52.338;21.228;2023-07-16T05:23:15;690.30;;;632.30;;
52067;SDS011;60237;52.338;21.228;2023-07-16T05:25:46;703.10;;;644.00;;
52067;SDS011;60237;52.338;21.228;2023-07-16T05:28:13;694.25;;;635.97;;
52067;SDS011;60237;52.338;21.228;2023-07-16T05:30:39;721.70;;;661.33;;
52067;SDS011;60237;52.338;21.228;2023-07-16T05:33:06;724.03;;;662.25;;
52067;SDS011;60237;52.338;21.228;2023-07-16T05:35:32;719.72;;;659.17;;
52067;SDS011;60237;52.338;21.228;2023-07-16T05:37:59;725.17;;;662.33;;
52067;SDS011;60237;52.338;21.228;2023-07-16T05:40:26;728.17;;;666.40;;
52067;SDS011;60237;52.338;21.228;2023-07-16T05:42:54;731.40;;;669.58;;
52067;SDS011;60237;52.338;21.228;2023-07-16T05:45:27;731.38;;;669.70;;
52067;SDS011;60237;52.338;21.228;2023-07-16T05:47:54;730.50;;;669.22;;
52067;SDS011;60237;52.338;21.228;2023-07-16T05:50:20;740.15;;;677.10;;
52067;SDS011;60237;52.338;21.228;2023-07-16T05:52:47;726.33;;;665.42;;
52067;SDS011;60237;52.338;21.228;2023-07-16T05:55:15;726.55;;;665.20;;
52067;SDS011;60237;52.338;21.228;2023-07-16T05:57:42;712.95;;;652.17;;
52067;SDS011;60237;52.338;21.228;2023-07-16T06:02:45;908.70;;;828.45;;
52067;SDS011;60237;52.338;21.228;2023-07-16T06:05:12;894.42;;;813.53;;
52067;SDS011;60237;52.338;21.228;2023-07-16T06:07:38;869.95;;;791.78;;
52067;SDS011;60237;52.338;21.228;2023-07-16T06:10:05;886.97;;;808.60;;
52067;SDS011;60237;52.338;21.228;2023-07-16T06:12:32;889.53;;;803.55;;
52067;SDS011;60237;52.338;21.228;2023-07-16T06:14:59;868.30;;;789.30;;
52067;SDS011;60237;52.338;21.228;2023-07-16T06:17:25;878.83;;;801.10;;
52067;SDS011;60237;52.338;21.228;2023-07-16T06:19:52;871.35;;;792.80;;
52067;SDS011;60237;52.338;21.228;2023-07-16T06:22:19;882.00;;;803.45;;
52067;SDS011;60237;52.338;21.228;2023-07-16T06:24:46;867.03;;;789.10;;
52067;SDS011;60237;52.338;21.228;2023-07-16T06:27:13;859.92;;;782.53;;
52067;SDS011;60237;52.338;21.228;2023-07-16T06:29:40;877.40;;;797.03;;
52067;SDS011;60237;52.338;21.228;2023-07-16T06:32:06;884.65;;;804.05;;
52067;SDS011;60237;52.338;21.228;2023-07-16T06:34:33;901.67;;;820.50;;
52067;SDS011;60237;52.338;21.228;2023-07-16T06:37:00;1042.70;;;948.30;;
52067;SDS011;60237;52.338;21.228;2023-07-16T06:39:27;1039.13;;;944.88;;
52067;SDS011;60237;52.338;21.228;2023-07-16T06:41:53;1022.05;;;929.15;;
52067;SDS011;60237;52.338;21.228;2023-07-16T06:44:21;992.10;;;901.30;;
52067;SDS011;60237;52.338;21.228;2023-07-16T06:46:48;991.50;;;900.63;;
52067;SDS011;60237;52.338;21.228;2023-07-16T06:49:14;984.10;;;893.70;;
52067;SDS011;60237;52.338;21.228;2023-07-16T06:51:41;1082.25;;;984.08;;
52067;SDS011;60237;52.338;21.228;2023-07-16T06:54:08;1119.57;;;999.90;;
52067;SDS011;60237;52.338;21.228;2023-07-16T06:56:34;1189.07;;;999.90;;
52067;SDS011;60237;52.338;21.228;2023-07-16T07:00:44;1999.90;;;999.90;;
52067;SDS011;60237;52.338;21.228;2023-07-16T07:03:11;1999.90;;;999.90;;
52067;SDS011;60237;52.338;21.228;2023-07-16T07:05:40;1999.90;;;999.90;;
52067;SDS011;60237;52.338;21.228;2023-07-16T07:08:08;1999.90;;;999.90;;
52067;SDS011;60237;52.338;21.228;2023-07-16T07:10:35;1999.90;;;999.90;;
52067;SDS011;60237;52.338;21.228;2023-07-16T07:13:04;1999.90;;;999.90;;
52067;SDS011;60237;52.338;21.228;2023-07-16T07:15:32;1999.90;;;999.90;;
52067;SDS011;60237;52.338;21.228;2023-07-16T07:17:59;1999.90;;;999.90;;
52067;SDS011;60237;52.338;21.228;2023-07-16T07:20:26;1999.90;;;999.90;;
52067;SDS011;60237;52.338;21.228;2023-07-16T07:22:53;1999.90;;;999.90;;
52067;SDS011;60237;52.338;21.228;2023-07-16T07:25:20;1999.90;;;999.90;;
52067;SDS011;60237;52.338;21.228;2023-07-16T07:27:48;1999.90;;;999.90;;
52067;SDS011;60237;52.338;21.228;2023-07-16T07:30:15;1999.90;;;999.90;;
52067;SDS011;60237;52.338;21.228;2023-07-16T07:32:42;1999.90;;;999.90;;
52067;SDS011;60237;52.338;21.228;2023-07-16T07:35:09;1999.90;;;999.90;;
52067;SDS011;60237;52.338;21.228;2023-07-16T07:37:36;1999.90;;;999.90;;
52067;SDS011;60237;52.338;21.228;2023-07-16T07:40:03;1999.90;;;999.90;;
52067;SDS011;60237;52.338;21.228;2023-07-16T07:42:30;1999.90;;;999.90;;
52067;SDS011;60237;52.338;21.228;2023-07-16T07:44:57;1999.90;;;999.90;;
52067;SDS011;60237;52.338;21.228;2023-07-16T07:47:24;1999.90;;;999.90;;
52067;SDS011;60237;52.338;21.228;2023-07-16T07:49:52;1999.90;;;999.90;;
52067;SDS011;60237;52.338;21.228;2023-07-16T07:52:19;1999.90;;;999.90;;
52067;SDS011;60237;52.338;21.228;2023-07-16T07:54:46;1999.90;;;999.90;;
52067;SDS011;60237;52.338;21.228;2023-07-16T07:57:13;1999.90;;;999.90;;
52067;SDS011;60237;52.338;21.228;2023-07-16T07:59:43;1999.90;;;999.90;;
52067;SDS011;60237;52.338;21.228;2023-07-16T08:02:10;1999.90;;;999.90;;
52067;SDS011;60237;52.338;21.228;2023-07-16T08:04:37;1999.90;;;999.90;;
52067;SDS011;60237;52.338;21.228;2023-07-16T08:07:04;1999.90;;;999.90;;
52067;SDS011;60237;52.338;21.228;2023-07-16T08:09:32;1999.90;;;999.90;;
52067;SDS011;60237;52.338;21.228;2023-07-16T08:11:59;1999.90;;;999.90;;
52067;SDS011;60237;52.338;21.228;2023-07-16T08:14:26;1999.90;;;999.90;;
52067;SDS011;60237;52.338;21.228;2023-07-16T08:16:53;1999.90;;;999.90;;
52067;SDS011;60237;52.338;21.228;2023-07-16T08:19:20;1999.90;;;999.90;;
52067;SDS011;60237;52.338;21.228;2023-07-16T08:21:47;1999.90;;;999.90;;
52067;SDS011;60237;52.338;21.228;2023-07-16T08:24:14;1999.90;;;999.90;;
52067;SDS011;60237;52.338;21.228;2023-07-16T08:26:41;1999.90;;;999.90;;
52067;SDS011;60237;52.338;21.228;2023-07-16T08:29:08;1999.90;;;999.90;;
52067;SDS011;60237;52.338;21.228;2023-07-16T08:31:35;1999.90;;;999.90;;
52067;SDS011;60237;52.338;21.228;2023-07-16T08:34:02;1999.90;;;999.90;;
52067;SDS011;60237;52.338;21.228;2023-07-16T08:36:30;1999.90;;;999.90;;
52067;SDS011;60237;52.338;21.228;2023-07-16T08:38:57;1999.90;;;999.90;;
52067;SDS011;60237;52.338;21.228;2023-07-16T08:41:24;1999.90;;;999.90;;
52067;SDS011;60237;52.338;21.228;2023-07-16T08:43:51;1999.90;;;999.90;;
52067;SDS011;60237;52.338;21.228;2023-07-16T08:46:18;1999.90;;;999.90;;
52067;SDS011;60237;52.338;21.228;2023-07-16T08:48:46;1999.90;;;999.90;;
52067;SDS011;60237;52.338;21.228;2023-07-16T08:51:14;1999.90;;;999.90;;
52067;SDS011;60237;52.338;21.228;2023-07-16T08:53:41;1999.90;;;999.90;;
52067;SDS011;60237;52.338;21.228;2023-07-16T08:56:08;1999.90;;;999.90;;
52067;SDS011;60237;52.338;21.228;2023-07-16T08:58:36;1999.90;;;999.90;;
52067;SDS011;60237;52.338;21.228;2023-07-16T09:01:04;1999.90;;;999.90;;
52067;SDS011;60237;52.338;21.228;2023-07-16T09:03:32;1999.90;;;999.90;;
52067;SDS011;60237;52.338;21.228;2023-07-16T09:05:59;1999.90;;;999.90;;
52067;SDS011;60237;52.338;21.228;2023-07-16T09:08:26;1999.90;;;999.90;;
52067;SDS011;60237;52.338;21.228;2023-07-16T09:10:58;1999.90;;;999.90;;
52067;SDS011;60237;52.338;21.228;2023-07-16T09:13:25;1999.90;;;999.90;;
52067;SDS011;60237;52.338;21.228;2023-07-16T09:15:54;1999.90;;;999.90;;
52067;SDS011;60237;52.338;21.228;2023-07-16T09:18:22;1999.90;;;999.90;;
52067;SDS011;60237;52.338;21.228;2023-07-16T09:20:58;1999.90;;;999.90;;
52067;SDS011;60237;52.338;21.228;2023-07-16T09:23:29;1999.90;;;999.90;;
52067;SDS011;60237;52.338;21.228;2023-07-16T09:25:56;1999.90;;;999.90;;
52067;SDS011;60237;52.338;21.228;2023-07-16T09:28:23;1999.90;;;999.90;;
52067;SDS011;60237;52.338;21.228;2023-07-16T09:30:50;1999.90;;;999.90;;
52067;SDS011;60237;52.338;21.228;2023-07-16T09:33:19;1999.90;;;999.90;;
52067;SDS011;60237;52.338;21.228;2023-07-16T09:35:49;1999.90;;;999.90;;
52067;SDS011;60237;52.338;21.228;2023-07-16T09:38:17;1999.90;;;999.90;;
52067;SDS011;60237;52.338;21.228;2023-07-16T09:40:44;1999.90;;;999.90;;
52067;SDS011;60237;52.338;21.228;2023-07-16T09:43:12;1999.90;;;999.90;;
52067;SDS011;60237;52.338;21.228;2023-07-16T09:45:40;1999.90;;;999.90;;
52067;SDS011;60237;52.338;21.228;2023-07-16T09:48:07;1999.90;;;999.90;;
52067;SDS011;60237;52.338;21.228;2023-07-16T09:50:36;1999.90;;;999.90;;
52067;SDS011;60237;52.338;21.228;2023-07-16T09:53:03;1999.90;;;999.90;;
52067;SDS011;60237;52.338;21.228;2023-07-16T09:55:31;1999.90;;;999.90;;
52067;SDS011;60237;52.338;21.228;2023-07-16T09:58:00;1999.90;;;999.90;;
52067;SDS011;60237;52.338;21.228;2023-07-16T10:00:28;1999.90;;;999.90;;
52067;SDS011;60237;52.338;21.228;2023-07-16T10:02:56;1999.90;;;999.90;;
52067;SDS011;60237;52.338;21.228;2023-07-16T10:05:25;1999.90;;;999.90;;
52067;SDS011;60237;52.338;21.228;2023-07-16T10:07:53;1999.90;;;999.90;;
52067;SDS011;60237;52.338;21.228;2023-07-16T10:10:20;1999.90;;;999.90;;
52067;SDS011;60237;52.338;21.228;2023-07-16T10:12:58;1999.90;;;999.90;;
52067;SDS011;60237;52.338;21.228;2023-07-16T10:15:30;1999.90;;;999.90;;
52067;SDS011;60237;52.338;21.228;2023-07-16T10:17:58;1999.90;;;999.90;;
52067;SDS011;60237;52.338;21.228;2023-07-16T10:20:29;1999.90;;;999.90;;
52067;SDS011;60237;52.338;21.228;2023-07-16T10:22:57;1999.90;;;999.90;;
52067;SDS011;60237;52.338;21.228;2023-07-16T10:25:26;1999.90;;;999.90;;
52067;SDS011;60237;52.338;21.228;2023-07-16T10:27:53;1999.90;;;999.90;;
52067;SDS011;60237;52.338;21.228;2023-07-16T10:30:21;1999.90;;;999.90;;
52067;SDS011;60237;52.338;21.228;2023-07-16T10:32:50;1999.90;;;999.90;;
52067;SDS011;60237;52.338;21.228;2023-07-16T10:35:18;1999.90;;;999.90;;
52067;SDS011;60237;52.338;21.228;2023-07-16T10:37:44;1999.90;;;999.90;;
52067;SDS011;60237;52.338;21.228;2023-07-16T10:40:12;1999.90;;;999.90;;
52067;SDS011;60237;52.338;21.228;2023-07-16T10:42:40;1999.90;;;999.90;;
52067;SDS011;60237;52.338;21.228;2023-07-16T10:45:07;1999.90;;;999.90;;
52067;SDS011;60237;52.338;21.228;2023-07-16T10:47:34;1999.90;;;999.90;;
52067;SDS011;60237;52.338;21.228;2023-07-16T10:50:08;1999.90;;;999.90;;
52067;SDS011;60237;52.338;21.228;2023-07-16T10:52:36;1999.90;;;999.90;;
52067;SDS011;60237;52.338;21.228;2023-07-16T10:55:04;1999.90;;;999.90;;
52067;SDS011;60237;52.338;21.228;2023-07-16T10:57:31;1999.90;;;999.90;;
52067;SDS011;60237;52.338;21.228;2023-07-16T10:59:58;1999.90;;;999.90;;
52067;SDS011;60237;52.338;21.228;2023-07-16T11:02:25;1999.90;;;999.90;;
52067;SDS011;60237;52.338;21.228;2023-07-16T11:04:52;1999.90;;;999.90;;
52067;SDS011;60237;52.338;21.228;2023-07-16T11:07:21;1999.90;;;999.90;;
52067;SDS011;60237;52.338;21.228;2023-07-16T11:09:52;1999.90;;;999.90;;
52067;SDS011;60237;52.338;21.228;2023-07-16T11:12:23;1999.90;;;869.88;;
52067;SDS011;60237;52.338;21.228;2023-07-16T11:14:51;1999.90;;;999.90;;
52067;SDS011;60237;52.338;21.228;2023-07-16T11:17:19;1999.90;;;999.90;;
52067;SDS011;60237;52.338;21.228;2023-07-16T11:19:47;1999.90;;;999.90;;
52067;SDS011;60237;52.338;21.228;2023-07-16T11:22:14;1999.90;;;999.90;;
52067;SDS011;60237;52.338;21.228;2023-07-16T11:24:46;1999.90;;;999.90;;
52067;SDS011;60237;52.338;21.228;2023-07-16T11:29:49;1999.90;;;999.90;;
52067;SDS011;60237;52.338;21.228;2023-07-16T11:32:26;1999.90;;;999.90;;
52067;SDS011;60237;52.338;21.228;2023-07-16T11:34:54;1999.90;;;978.60;;
52067;SDS011;60237;52.338;21.228;2023-07-16T11:37:22;1999.90;;;999.90;;
52067;SDS011;60237;52.338;21.228;2023-07-16T11:39:50;1999.90;;;999.90;;
52067;SDS011;60237;52.338;21.228;2023-07-16T11:42:24;1999.90;;;993.63;;
52067;SDS011;60237;52.338;21.228;2023-07-16T11:44:51;1999.90;;;999.85;;
52067;SDS011;60237;52.338;21.228;2023-07-16T11:47:18;1999.90;;;999.90;;
52067;SDS011;60237;52.338;21.228;2023-07-16T11:49:45;1999.90;;;999.90;;
52067;SDS011;60237;52.338;21.228;2023-07-16T11:52:12;1999.90;;;999.90;;
52067;SDS011;60237;52.338;21.228;2023-07-16T11:54:39;1999.90;;;999.90;;
52067;SDS011;60237;52.338;21.228;2023-07-16T11:57:06;1999.90;;;999.90;;
52067;SDS011;60237;52.338;21.228;2023-07-16T11:59:33;1999.90;;;999.90;;
52067;SDS011;60237;52.338;21.228;2023-07-16T12:02:00;1999.90;;;999.90;;
52067;SDS011;60237;52.338;21.228;2023-07-16T12:04:28;1999.90;;;999.90;;
52067;SDS011;60237;52.338;21.228;2023-07-16T12:06:55;1999.90;;;999.90;;
52067;SDS011;60237;52.338;21.228;2023-07-16T12:09:22;1999.90;;;999.90;;
52067;SDS011;60237;52.338;21.228;2023-07-16T12:11:49;1999.90;;;999.90;;
52067;SDS011;60237;52.338;21.228;2023-07-16T12:14:16;1999.90;;;999.90;;
52067;SDS011;60237;52.338;21.228;2023-07-16T12:16:43;1999.90;;;980.03;;
52067;SDS011;60237;52.338;21.228;2023-07-16T12:19:10;1999.90;;;992.55;;
52067;SDS011;60237;52.338;21.228;2023-07-16T12:21:37;1999.90;;;998.15;;
52067;SDS011;60237;52.338;21.228;2023-07-16T12:24:04;1999.90;;;977.08;;
52067;SDS011;60237;52.338;21.228;2023-07-16T12:26:32;1999.90;;;998.25;;
52067;SDS011;60237;52.338;21.228;2023-07-16T12:29:00;1999.90;;;994.92;;
52067;SDS011;60237;52.338;21.228;2023-07-16T12:31:32;1999.90;;;934.35;;
52067;SDS011;60237;52.338;21.228;2023-07-16T12:34:00;1999.90;;;942.65;;
52067;SDS011;60237;52.338;21.228;2023-07-16T12:36:28;1999.90;;;842.63;;
52067;SDS011;60237;52.338;21.228;2023-07-16T12:38:55;1999.90;;;811.10;;
52067;SDS011;60237;52.338;21.228;2023-07-16T12:41:22;1999.90;;;725.85;;
52067;SDS011;60237;52.338;21.228;2023-07-16T12:43:49;1999.90;;;755.10;;
52067;SDS011;60237;52.338;21.228;2023-07-16T12:46:16;1999.90;;;749.28;;
52067;SDS011;60237;52.338;21.228;2023-07-16T12:48:43;1999.90;;;726.13;;
52067;SDS011;60237;52.338;21.228;2023-07-16T12:51:10;1999.90;;;771.63;;
52067;SDS011;60237;52.338;21.228;2023-07-16T12:53:37;1999.90;;;731.92;;
52067;SDS011;60237;52.338;21.228;2023-07-16T12:56:05;1999.90;;;767.80;;
52067;SDS011;60237;52.338;21.228;2023-07-16T12:58:31;1999.90;;;724.60;;
52067;SDS011;60237;52.338;21.228;2023-07-16T13:00:58;1999.90;;;750.55;;
52067;SDS011;60237;52.338;21.228;2023-07-16T13:03:25;1999.90;;;714.55;;
52067;SDS011;60237;52.338;21.228;2023-07-16T13:05:52;1999.90;;;696.78;;
52067;SDS011;60237;52.338;21.228;2023-07-16T13:08:19;1999.90;;;780.53;;
52067;SDS011;60237;52.338;21.228;2023-07-16T13:10:46;1999.90;;;730.63;;
52067;SDS011;60237;52.338;21.228;2023-07-16T13:13:13;1999.90;;;746.03;;
52067;SDS011;60237;52.338;21.228;2023-07-16T13:15:40;1999.90;;;780.35;;
52067;SDS011;60237;52.338;21.228;2023-07-16T13:18:09;1999.90;;;764.92;;
52067;SDS011;60237;52.338;21.228;2023-07-16T13:20:36;1999.90;;;761.25;;
52067;SDS011;60237;52.338;21.228;2023-07-16T13:23:03;1999.90;;;834.47;;
52067;SDS011;60237;52.338;21.228;2023-07-16T13:25:30;1999.90;;;791.28;;
52067;SDS011;60237;52.338;21.228;2023-07-16T13:27:57;1999.90;;;816.97;;
52067;SDS011;60237;52.338;21.228;2023-07-16T13:30:24;1999.90;;;807.42;;
52067;SDS011;60237;52.338;21.228;2023-07-16T13:32:52;1999.90;;;782.22;;
52067;SDS011;60237;52.338;21.228;2023-07-16T13:35:23;1999.90;;;794.75;;
52067;SDS011;60237;52.338;21.228;2023-07-16T13:37:50;1999.90;;;939.00;;
52067;SDS011;60237;52.338;21.228;2023-07-16T13:40:17;1999.90;;;815.53;;
52067;SDS011;60237;52.338;21.228;2023-07-16T13:42:47;1999.90;;;804.03;;
52067;SDS011;60237;52.338;21.228;2023-07-16T13:45:14;1999.90;;;817.90;;
52067;SDS011;60237;52.338;21.228;2023-07-16T13:47:41;1999.90;;;828.25;;
52067;SDS011;60237;52.338;21.228;2023-07-16T13:50:09;1999.90;;;900.78;;
52067;SDS011;60237;52.338;21.228;2023-07-16T13:52:35;1999.90;;;878.58;;
52067;SDS011;60237;52.338;21.228;2023-07-16T13:55:03;1999.90;;;894.30;;